createdAt,value
2022-10-20T00:02:13.101Z,14.15
2022-10-20T00:05:14.860Z,14.01
2022-10-20T00:08:16.962Z,14.07
2022-10-20T00:11:20.578Z,14.10
2022-10-20T00:14:21.984Z,14.07
2022-10-20T00:17:23.475Z,13.98
2022-10-20T00:20:25.138Z,13.87
2022-10-20T00:23:26.609Z,13.78
2022-10-20T00:26:31.283Z,13.71
2022-10-20T00:29:32.733Z,13.83
2022-10-20T00:32:34.573Z,13.84
2022-10-20T00:35:38.161Z,14.08
2022-10-20T00:38:40.133Z,14.01
2022-10-20T00:41:41.568Z,13.87
2022-10-20T00:44:48.997Z,13.97
2022-10-20T00:48:04.577Z,13.65
2022-10-20T00:51:06.541Z,13.86
2022-10-20T00:54:12.569Z,14.02
2022-10-20T00:57:14.167Z,13.87
2022-10-20T01:00:16.396Z,13.65
2022-10-20T01:03:20.091Z,13.54
2022-10-20T01:06:22.767Z,13.59
2022-10-20T01:09:24.352Z,13.58
2022-10-20T01:12:44.186Z,13.57
2022-10-20T01:16:26.187Z,13.56
2022-10-20T01:19:49.324Z,13.75
2022-10-20T01:23:26.153Z,13.79
2022-10-20T01:26:49.051Z,13.82
2022-10-20T01:29:57.834Z,13.73
2022-10-20T01:33:11.345Z,13.60
2022-10-20T01:36:35.301Z,13.53
2022-10-20T01:39:56.935Z,13.49
2022-10-20T01:43:04.278Z,13.69
2022-10-20T01:46:09.537Z,13.70
2022-10-20T01:49:13.907Z,13.60
2022-10-20T01:52:15.709Z,13.60
2022-10-20T01:55:18.316Z,13.49
2022-10-20T01:58:28.579Z,13.42
2022-10-20T02:02:10.333Z,13.53
2022-10-20T02:05:40.013Z,13.55
2022-10-20T02:08:44.726Z,13.51
2022-10-20T02:11:59.703Z,13.50
2022-10-20T02:15:02.414Z,13.51
2022-10-20T02:18:08.428Z,13.56
2022-10-20T02:21:11.052Z,13.37
2022-10-20T02:24:14.286Z,13.31
2022-10-20T02:27:24.665Z,13.31
2022-10-20T02:30:26.168Z,13.25
2022-10-20T02:33:28.743Z,13.36
2022-10-20T02:36:30.301Z,13.44
2022-10-20T02:39:31.742Z,13.46
2022-10-20T02:42:33.304Z,13.50
2022-10-20T02:45:34.745Z,13.49
2022-10-20T02:48:38.156Z,13.42
2022-10-20T02:51:39.590Z,13.54
2022-10-20T02:54:41.047Z,13.41
2022-10-20T02:57:42.430Z,13.28
2022-10-20T03:00:43.842Z,13.34
2022-10-20T03:03:45.302Z,13.46
2022-10-20T03:06:46.850Z,13.30
2022-10-20T03:09:48.914Z,13.33
2022-10-20T03:12:50.319Z,13.18
2022-10-20T03:15:51.733Z,13.12
2022-10-20T03:18:53.628Z,13.32
2022-10-20T03:21:55.059Z,13.00
2022-10-20T03:24:56.542Z,12.90
2022-10-20T03:27:58.728Z,12.94
2022-10-20T03:31:00.107Z,13.08
2022-10-20T03:34:01.515Z,13.06
2022-10-20T03:37:03.462Z,13.03
2022-10-20T03:40:05.536Z,13.09
2022-10-20T03:43:06.910Z,13.11
2022-10-20T03:46:11.519Z,13.07
2022-10-20T03:49:12.953Z,13.03
2022-10-20T03:52:14.433Z,13.16
2022-10-20T03:55:16.967Z,13.20
2022-10-20T03:58:18.505Z,13.10
2022-10-20T04:01:24.290Z,13.06
2022-10-20T04:04:25.713Z,13.01
2022-10-20T04:07:27.143Z,13.03
2022-10-20T04:10:28.562Z,12.87
2022-10-20T04:13:30.119Z,12.94
2022-10-20T04:16:31.511Z,13.03
2022-10-20T04:19:32.990Z,13.14
2022-10-20T04:22:34.719Z,13.12
2022-10-20T04:25:39.563Z,12.89
2022-10-20T04:28:41.809Z,12.96
2022-10-20T04:31:46.743Z,12.78
2022-10-20T04:34:50.581Z,12.83
2022-10-20T04:37:52.038Z,12.63
2022-10-20T04:41:00.371Z,12.70
2022-10-20T04:44:05.186Z,12.84
2022-10-20T04:47:06.682Z,12.91
2022-10-20T04:50:08.830Z,12.99
2022-10-20T04:53:10.261Z,12.89
2022-10-20T04:56:19.414Z,12.79
2022-10-20T04:59:20.985Z,12.02
2022-10-20T05:02:22.488Z,12.02
2022-10-20T05:05:23.911Z,12.15
2022-10-20T05:08:26.174Z,12.49
2022-10-20T05:11:28.501Z,12.60
2022-10-20T05:14:30.052Z,12.37
2022-10-20T05:17:31.552Z,12.37
2022-10-20T05:20:41.001Z,12.63
2022-10-20T05:23:43.870Z,12.58
2022-10-20T05:26:45.451Z,12.65
2022-10-20T05:29:47.047Z,12.56
2022-10-20T05:32:48.645Z,12.56
2022-10-20T05:35:50.099Z,12.45
2022-10-20T05:38:54.429Z,12.59
2022-10-20T05:41:55.938Z,12.73
2022-10-20T05:44:57.549Z,12.56
2022-10-20T05:47:59.035Z,12.61
2022-10-20T05:51:13.917Z,12.69
2022-10-20T05:54:16.864Z,12.70
2022-10-20T05:57:18.471Z,12.77
2022-10-20T06:00:29.751Z,12.58
2022-10-20T06:03:31.491Z,12.61
2022-10-20T06:06:32.996Z,12.20
2022-10-20T06:09:34.598Z,12.19
2022-10-20T06:12:36.503Z,11.87
2022-10-20T06:15:38.386Z,12.07
2022-10-20T06:18:42.744Z,12.29
2022-10-20T06:21:44.875Z,11.97
2022-10-20T06:24:46.926Z,12.04
2022-10-20T06:27:48.483Z,12.26
2022-10-20T06:30:49.998Z,12.45
2022-10-20T06:33:52.079Z,12.53
2022-10-20T06:36:53.975Z,12.54
2022-10-20T06:39:56.690Z,12.46
2022-10-20T06:43:01.311Z,12.45
2022-10-20T06:46:05.707Z,12.36
2022-10-20T06:49:08.015Z,12.27
2022-10-20T06:55:17.813Z,12.67
2022-10-20T06:58:19.289Z,12.56
2022-10-20T07:01:26.666Z,12.68
2022-10-20T07:04:28.284Z,12.85
2022-10-20T07:07:29.887Z,12.91
2022-10-20T07:10:31.640Z,12.64
2022-10-20T07:13:34.240Z,12.73
2022-10-20T07:16:35.737Z,12.82
2022-10-20T07:19:37.215Z,13.01
2022-10-20T07:22:39.145Z,13.18
2022-10-20T07:25:40.855Z,12.96
2022-10-20T07:28:44.652Z,12.92
2022-10-20T07:31:47.875Z,13.07
2022-10-20T07:34:49.247Z,13.14
2022-10-20T07:37:50.621Z,13.13
2022-10-20T07:40:52.258Z,13.35
2022-10-20T07:43:55.662Z,13.49
2022-10-20T07:46:57.118Z,13.47
2022-10-20T07:49:58.582Z,13.48
2022-10-20T07:52:59.985Z,13.55
2022-10-20T07:56:01.415Z,13.60
2022-10-20T07:59:04.055Z,13.64
2022-10-20T08:02:05.529Z,13.64
2022-10-20T08:05:08.956Z,13.64
2022-10-20T08:08:10.343Z,13.52
2022-10-20T08:11:11.800Z,13.68
2022-10-20T08:14:13.260Z,13.69
2022-10-20T08:17:14.739Z,13.76
2022-10-20T08:20:24.982Z,13.44
2022-10-20T08:23:28.542Z,13.60
2022-10-20T08:26:29.969Z,13.90
2022-10-20T08:29:31.560Z,14.18
2022-10-20T08:32:33.335Z,14.24
2022-10-20T08:35:34.763Z,14.02
2022-10-20T08:38:37.439Z,14.27
2022-10-20T08:45:03.814Z,14.29
2022-10-20T08:48:05.465Z,14.43
2022-10-20T08:51:07.070Z,14.72
2022-10-20T08:54:14.281Z,14.59
2022-10-20T08:57:23.810Z,14.67
2022-10-20T09:00:26.296Z,14.67
2022-10-20T09:03:30.847Z,14.57
2022-10-20T09:06:32.853Z,14.35
2022-10-20T09:09:35.573Z,14.34
2022-10-20T09:12:40.271Z,14.28
2022-10-20T09:15:41.928Z,14.58
2022-10-20T09:18:43.523Z,14.74
2022-10-20T09:21:50.611Z,14.69
2022-10-20T09:24:56.048Z,14.53
2022-10-20T09:27:57.609Z,14.73
2022-10-20T09:30:58.993Z,14.49
2022-10-20T09:34:00.892Z,14.60
2022-10-20T09:37:08.244Z,14.62
2022-10-20T09:40:16.036Z,14.83
2022-10-20T09:43:18.376Z,14.79
2022-10-20T09:46:27.031Z,14.86
2022-10-20T09:49:35.079Z,14.76
2022-10-20T09:52:47.461Z,14.63
2022-10-20T09:55:51.102Z,14.61
2022-10-20T09:58:53.496Z,14.88
2022-10-20T10:01:58.092Z,14.84
2022-10-20T10:05:20.445Z,14.79
2022-10-20T10:08:24.564Z,14.79
2022-10-20T10:11:32.766Z,14.92
2022-10-20T10:14:36.348Z,15.06
2022-10-20T10:17:40.941Z,15.18
2022-10-20T10:20:42.506Z,15.31
2022-10-20T10:23:59.072Z,15.18
2022-10-20T10:27:00.594Z,14.99
2022-10-20T10:30:29.357Z,15.04
2022-10-20T10:33:33.011Z,15.07
2022-10-20T10:36:36.561Z,15.26
2022-10-20T10:39:38.175Z,15.38
2022-10-20T10:43:01.090Z,15.34
2022-10-20T10:46:12.172Z,15.42
2022-10-20T10:49:50.452Z,15.35
2022-10-20T10:53:08.336Z,15.23
2022-10-20T10:56:21.847Z,15.42
2022-10-20T10:59:28.323Z,15.42
2022-10-20T11:03:05.059Z,15.45
2022-10-20T11:06:19.660Z,15.51
2022-10-20T11:09:36.443Z,15.48
2022-10-20T11:13:03.161Z,15.32
2022-10-20T11:16:35.708Z,15.43
2022-10-20T11:19:53.849Z,15.37
2022-10-20T11:23:04.373Z,15.59
2022-10-20T11:26:28.179Z,15.63
2022-10-20T11:29:51.237Z,15.79
2022-10-20T11:33:00.938Z,15.63
2022-10-20T11:36:16.572Z,15.75
2022-10-20T11:39:30.113Z,15.81
2022-10-20T11:42:48.570Z,15.90
2022-10-20T11:45:55.050Z,15.89
2022-10-20T11:49:00.286Z,16.03
2022-10-20T11:52:14.293Z,16.07
2022-10-20T11:55:27.810Z,16.14
2022-10-20T11:58:40.258Z,16.26
2022-10-20T12:02:19.104Z,16.28
2022-10-20T12:05:51.709Z,16.22
2022-10-20T12:09:11.917Z,16.10
2022-10-20T12:13:01.310Z,16.10
2022-10-20T12:16:03.102Z,16.32
2022-10-20T12:19:17.930Z,16.24
2022-10-20T12:22:22.510Z,16.15
2022-10-20T12:25:27.078Z,16.16
2022-10-20T12:28:28.474Z,16.30
2022-10-20T12:32:07.595Z,16.29
2022-10-20T12:35:11.809Z,16.42
2022-10-20T12:38:17.987Z,16.52
2022-10-20T12:41:35.455Z,16.48
2022-10-20T12:44:43.141Z,16.43
2022-10-20T12:47:58.428Z,16.48
2022-10-20T12:51:08.135Z,16.48
2022-10-20T12:54:29.029Z,16.51
2022-10-20T12:57:41.357Z,16.57
2022-10-20T13:00:49.421Z,16.61
2022-10-20T13:03:52.577Z,16.53
2022-10-20T13:06:54.020Z,16.54
2022-10-20T13:09:58.959Z,16.63
2022-10-20T13:13:03.294Z,16.58
2022-10-20T13:16:13.801Z,16.65
2022-10-20T13:19:22.699Z,16.63
2022-10-20T13:22:33.214Z,16.50
2022-10-20T13:25:45.903Z,16.54
2022-10-20T13:28:49.751Z,16.52
2022-10-20T13:32:26.101Z,16.51
2022-10-20T13:35:32.053Z,16.67
2022-10-20T13:38:51.941Z,16.69
2022-10-20T13:41:58.192Z,16.48
2022-10-20T13:45:19.893Z,16.62
2022-10-20T13:48:34.560Z,16.64
2022-10-20T13:51:47.883Z,16.70
2022-10-20T13:54:51.444Z,16.79
2022-10-20T13:58:03.131Z,16.59
2022-10-20T14:01:23.063Z,16.68
2022-10-20T14:04:32.547Z,16.60
2022-10-20T14:07:40.353Z,16.56
2022-10-20T14:11:00.043Z,16.47
2022-10-20T14:14:02.268Z,16.54
2022-10-20T14:17:07.330Z,16.54
2022-10-20T14:20:22.351Z,16.39
2022-10-20T14:23:25.118Z,16.34
2022-10-20T14:26:28.501Z,16.36
2022-10-20T14:29:33.497Z,16.39
2022-10-20T14:32:39.461Z,16.43
2022-10-20T14:35:46.786Z,16.46
2022-10-20T14:38:51.710Z,16.44
2022-10-20T14:41:57.329Z,16.31
2022-10-20T14:45:01.149Z,16.45
2022-10-20T14:48:02.809Z,16.49
2022-10-20T14:51:44.924Z,16.01
2022-10-20T14:54:48.448Z,15.90
2022-10-20T14:57:50.556Z,16.10
2022-10-20T15:00:51.868Z,16.32
2022-10-20T15:04:16.189Z,15.80
2022-10-20T15:07:26.845Z,16.22
2022-10-20T15:10:30.736Z,16.32
2022-10-20T15:13:33.760Z,16.17
2022-10-20T15:16:44.396Z,15.68
2022-10-20T15:19:45.912Z,16.13
2022-10-20T15:22:47.344Z,16.13
2022-10-20T15:26:00.320Z,16.24
2022-10-20T15:29:01.813Z,16.09
2022-10-20T15:32:03.242Z,16.29
2022-10-20T15:35:11.933Z,16.24
2022-10-20T15:38:13.888Z,16.36
2022-10-20T15:41:17.847Z,16.16
2022-10-20T15:44:24.388Z,16.15
2022-10-20T15:47:25.892Z,16.23
2022-10-20T15:50:27.377Z,16.34
2022-10-20T15:53:28.892Z,16.21
2022-10-20T15:56:30.617Z,15.88
2022-10-20T15:59:32.154Z,15.97
2022-10-20T16:02:33.752Z,16.19
2022-10-20T16:05:38.071Z,16.25
2022-10-20T16:08:43.845Z,16.12
2022-10-20T16:11:45.304Z,16.14
2022-10-20T16:14:46.705Z,16.22
2022-10-20T16:20:50.569Z,16.29
2022-10-20T16:23:52.083Z,16.11
2022-10-20T16:26:53.611Z,16.23
2022-10-20T16:29:55.098Z,16.31
2022-10-20T16:32:56.557Z,16.23
2022-10-20T16:35:58.071Z,16.22
2022-10-20T16:39:00.885Z,16.24
2022-10-20T16:42:02.293Z,16.16
2022-10-20T16:45:05.497Z,16.23
2022-10-20T16:48:06.902Z,16.27
2022-10-20T16:51:10.485Z,16.17
2022-10-20T16:54:11.923Z,16.11
2022-10-20T16:57:13.774Z,16.24
2022-10-20T17:00:15.761Z,16.19
2022-10-20T17:03:20.292Z,16.27
2022-10-20T17:06:25.194Z,16.32
2022-10-20T17:09:26.873Z,16.22
2022-10-20T17:12:33.981Z,16.13
2022-10-20T17:15:40.157Z,15.83
2022-10-20T17:18:45.112Z,15.76
2022-10-20T17:21:55.207Z,15.99
2022-10-20T17:25:04.629Z,16.18
2022-10-20T17:28:08.184Z,16.16
2022-10-20T17:34:39.837Z,15.92
2022-10-20T17:37:44.392Z,15.85
2022-10-20T17:40:49.300Z,16.07
2022-10-20T17:43:52.803Z,16.18
2022-10-20T17:46:59.223Z,16.03
2022-10-20T17:50:03.898Z,16.02
2022-10-20T17:53:08.936Z,16.07
2022-10-20T17:56:40.861Z,16.12
2022-10-20T17:59:52.743Z,16.23
2022-10-20T18:02:58.653Z,16.22
2022-10-20T18:06:31.240Z,16.16
2022-10-20T18:09:37.187Z,16.16
2022-10-20T18:12:46.824Z,16.13
2022-10-20T18:15:55.534Z,16.16
2022-10-20T18:19:01.768Z,16.19
2022-10-20T18:22:07.206Z,16.19
2022-10-20T18:25:19.358Z,16.22
2022-10-20T18:28:32.668Z,16.12
2022-10-20T18:31:39.302Z,16.17
2022-10-20T18:34:43.809Z,16.15
2022-10-20T18:37:45.520Z,15.89
2022-10-20T18:40:47.036Z,16.09
2022-10-20T18:43:57.605Z,16.14
2022-10-20T18:46:59.882Z,16.10
2022-10-20T18:50:01.391Z,16.07
2022-10-20T18:53:02.836Z,15.97
2022-10-20T18:56:07.125Z,15.84
2022-10-20T18:59:11.945Z,16.06
2022-10-20T19:02:13.393Z,16.12
2022-10-20T19:05:15.025Z,16.14
2022-10-20T19:08:16.444Z,16.16
2022-10-20T19:11:19.000Z,16.09
2022-10-20T19:14:20.702Z,16.11
2022-10-20T19:17:22.166Z,16.19
2022-10-20T19:20:23.651Z,16.07
2022-10-20T19:23:26.181Z,15.92
2022-10-20T19:26:33.459Z,15.85
2022-10-20T19:29:35.107Z,15.87
2022-10-20T19:32:40.366Z,15.88
2022-10-20T19:35:45.145Z,15.72
2022-10-20T19:38:47.125Z,15.72
2022-10-20T19:41:48.761Z,15.70
2022-10-20T19:44:50.276Z,15.75
2022-10-20T19:47:51.696Z,15.84
2022-10-20T19:50:53.455Z,15.86
2022-10-20T19:53:55.079Z,15.86
2022-10-20T19:56:56.922Z,15.85
2022-10-20T19:59:58.425Z,15.86
2022-10-20T20:02:59.905Z,15.95
2022-10-20T20:06:07.999Z,15.93
2022-10-20T20:09:11.034Z,15.94
2022-10-20T20:12:12.816Z,15.90
2022-10-20T20:15:16.504Z,15.89
2022-10-20T20:18:18.636Z,15.83
2022-10-20T20:21:20.650Z,15.80
2022-10-20T20:24:22.249Z,15.57
2022-10-20T20:27:23.747Z,15.66
2022-10-20T20:30:25.223Z,15.72
2022-10-20T20:33:27.098Z,15.61
2022-10-20T20:36:28.851Z,15.70
2022-10-20T20:39:30.276Z,15.65
2022-10-20T20:42:31.792Z,15.58
2022-10-20T20:45:33.173Z,15.61
2022-10-20T20:48:38.328Z,15.60
2022-10-20T20:51:39.773Z,15.64
2022-10-20T20:54:41.218Z,15.56
2022-10-20T20:57:42.857Z,15.60
2022-10-20T21:00:44.313Z,15.58
2022-10-20T21:03:46.240Z,15.66
2022-10-20T21:07:01.648Z,15.63
2022-10-20T21:10:04.756Z,15.68
2022-10-20T21:13:06.202Z,15.62
2022-10-20T21:16:19.617Z,15.57
2022-10-20T21:19:21.941Z,15.59
2022-10-20T21:22:23.425Z,15.57
2022-10-20T21:25:24.948Z,15.22
2022-10-20T21:28:26.398Z,15.04
2022-10-20T21:31:29.016Z,15.21
2022-10-20T21:34:30.422Z,15.15
2022-10-20T21:37:31.831Z,15.43
2022-10-20T21:40:33.237Z,15.42
2022-10-20T21:43:36.800Z,15.28
2022-10-20T21:46:42.004Z,15.26
2022-10-20T21:49:43.413Z,15.35
2022-10-20T21:52:44.797Z,14.89
2022-10-20T21:55:46.281Z,14.60
2022-10-20T21:58:47.685Z,15.12
2022-10-20T22:01:50.233Z,15.29
2022-10-20T22:04:51.636Z,15.12
2022-10-20T22:07:53.052Z,15.20
2022-10-20T22:10:54.472Z,15.16
2022-10-20T22:13:56.912Z,15.23
2022-10-20T22:16:58.336Z,15.30
2022-10-20T22:19:59.722Z,15.27
2022-10-20T22:23:02.802Z,15.31
2022-10-20T22:26:05.290Z,15.28
2022-10-20T22:29:09.558Z,15.31
2022-10-20T22:32:10.979Z,15.22
2022-10-20T22:35:12.471Z,15.21
2022-10-20T22:38:14.082Z,15.23
2022-10-20T22:41:15.854Z,15.32
2022-10-20T22:44:17.327Z,15.25
2022-10-20T22:47:18.745Z,15.37
2022-10-20T22:50:20.536Z,15.23
2022-10-20T22:53:23.734Z,15.23
2022-10-20T22:56:25.392Z,15.20
2022-10-20T22:59:26.768Z,15.01
2022-10-20T23:02:29.546Z,14.97
2022-10-20T23:05:30.960Z,14.92
2022-10-20T23:08:32.811Z,15.03
2022-10-20T23:11:34.401Z,14.62
2022-10-20T23:14:35.877Z,15.13
2022-10-20T23:17:37.803Z,14.75
2022-10-20T23:20:39.843Z,15.20
2022-10-20T23:23:41.787Z,15.11
2022-10-20T23:26:43.639Z,14.61
2022-10-20T23:29:45.129Z,15.05
2022-10-20T23:32:46.538Z,15.06
2022-10-20T23:35:48.083Z,15.00
2022-10-20T23:38:49.569Z,15.10
2022-10-20T23:41:51.035Z,15.22
2022-10-20T23:44:52.400Z,15.30
2022-10-20T23:47:53.934Z,15.15
2022-10-20T23:50:55.642Z,14.73
2022-10-20T23:53:57.553Z,14.98
2022-10-20T23:56:59.050Z,15.13
